Time;durP1;ratioP1;P1;durP2;ratioP2;P2;SDS_P1;SDS_P2;PMS_P1;PMS_P2;Temp;Humidity;BMP_temperature;BMP_pressure;BME280_temperature;BME280_humidity;BME280_pressure;Samples;Min_cycle;Max_cycle;Signal;HPM_P1;HPM_P2
2022/09/07 00:00:11;;;;;;;6.47;2.83;;;19.60;99.90;;;;;;5031620;28;20224;-68
2022/09/07 00:02:37;;;;;;;4.47;2.63;;;19.70;99.90;;;;;;5033097;28;20225;-68
2022/09/07 00:05:02;;;;;;;5.70;2.70;;;19.70;99.90;;;;;;5031925;28;21066;-68
2022/09/07 00:07:28;;;;;;;3.30;3.10;;;19.80;99.90;;;;;;5029736;28;20667;-68
2022/09/07 00:09:53;;;;;;;4.70;2.77;;;19.80;99.90;;;;;;5027796;28;20660;-68
2022/09/07 00:12:19;;;;;;;4.60;2.93;;;19.80;99.90;;;;;;5022134;28;20543;-67
2022/09/07 00:14:45;;;;;;;3.80;2.77;;;19.80;99.90;;;;;;5029385;28;20221;-68
2022/09/07 00:17:10;;;;;;;2.80;2.60;;;19.80;99.90;;;;;;5023268;28;20183;-68
2022/09/07 00:19:36;;;;;;;3.47;3.17;;;19.80;99.90;;;;;;5027782;28;20270;-68
2022/09/07 00:22:01;;;;;;;5.90;3.20;;;19.80;99.90;;;;;;5027150;28;20194;-68
2022/09/07 00:24:26;;;;;;;7.73;2.80;;;19.70;99.90;;;;;;5029916;28;20206;-68
2022/09/07 00:26:54;;;;;;;5.50;3.10;;;19.80;99.90;;;;;;5032587;28;20716;-67
2022/09/07 00:29:19;;;;;;;5.13;3.37;;;19.80;99.90;;;;;;5030711;28;20179;-68
2022/09/07 00:31:45;;;;;;;3.83;2.90;;;19.80;99.90;;;;;;5030430;28;22314;-68
2022/09/07 00:34:11;;;;;;;5.30;2.83;;;19.80;99.90;;;;;;5032828;28;20198;-68
2022/09/07 00:36:36;;;;;;;5.03;3.30;;;19.80;99.90;;;;;;5028667;28;20175;-68
2022/09/07 00:39:02;;;;;;;3.60;2.73;;;19.80;99.90;;;;;;5031821;28;20182;-68
2022/09/07 00:41:27;;;;;;;3.20;2.90;;;19.80;99.90;;;;;;5029228;28;20240;-68
2022/09/07 00:44:17;;;;;;;5.50;2.70;;;19.70;99.90;;;;;;5023886;28;20213;-67
2022/09/07 00:46:43;;;;;;;4.10;2.87;;;19.70;99.90;;;;;;5029874;28;20182;-67
2022/09/07 00:49:13;;;;;;;7.23;2.87;;;19.60;99.90;;;;;;5030156;28;20436;-67
2022/09/07 00:51:52;;;;;;;3.23;2.93;;;19.60;99.90;;;;;;5031679;28;20437;-67
2022/09/07 00:54:26;;;;;;;6.60;2.90;;;19.50;99.90;;;;;;5030717;28;20875;-67
2022/09/07 00:56:52;;;;;;;3.70;3.10;;;19.50;99.90;;;;;;5023711;28;20441;-67
2022/09/07 00:59:23;;;;;;;4.47;2.90;;;19.40;99.90;;;;;;5024830;28;20445;-67
2022/09/07 01:01:49;;;;;;;3.80;2.90;;;19.30;99.90;;;;;;5024999;28;20942;-67
2022/09/07 01:04:15;;;;;;;3.97;2.90;;;19.30;99.90;;;;;;5029443;28;20468;-66
2022/09/07 01:06:42;;;;;;;3.60;2.53;;;19.30;99.90;;;;;;5024659;28;20432;-66
2022/09/07 01:09:17;;;;;;;3.77;3.10;;;19.30;99.90;;;;;;5029618;28;20206;-66
2022/09/07 01:11:49;;;;;;;3.20;2.87;;;19.30;99.90;;;;;;5024306;28;20447;-66
2022/09/07 01:14:17;;;;;;;3.83;3.20;;;19.30;99.90;;;;;;5022941;28;20480;-66
2022/09/07 01:17:01;;;;;;;8.23;3.37;;;19.20;99.90;;;;;;5025073;28;20441;-66
2022/09/07 01:20:04;;;;;;;3.20;3.00;;;19.20;99.90;;;;;;5028330;28;20446;-66
2022/09/07 01:22:43;;;;;;;3.67;3.30;;;19.20;99.90;;;;;;5022826;28;20448;-66
2022/09/07 01:25:18;;;;;;;7.60;3.40;;;19.10;99.90;;;;;;5030642;28;20468;-66
2022/09/07 01:28:03;;;;;;;4.73;3.33;;;19.10;99.90;;;;;;5027805;28;20507;-66
2022/09/07 01:30:34;;;;;;;8.50;3.40;;;19.10;99.90;;;;;;5024346;28;20440;-66
2022/09/07 01:33:21;;;;;;;3.80;3.43;;;19.10;99.90;;;;;;5018963;28;20466;-66
2022/09/07 01:36:10;;;;;;;4.30;3.67;;;19.10;99.90;;;;;;5020954;28;20451;-66
2022/09/07 01:38:57;;;;;;;4.87;3.30;;;19.10;99.90;;;;;;5030012;28;20941;-66
2022/09/07 01:41:48;;;;;;;3.73;3.40;;;19.10;99.90;;;;;;5027360;28;20852;-66
2022/09/07 01:44:19;;;;;;;3.40;3.10;;;19.10;99.90;;;;;;5017782;28;20465;-66
2022/09/07 01:47:04;;;;;;;9.20;3.50;;;19.20;99.90;;;;;;5029154;28;20463;-66
2022/09/07 01:49:50;;;;;;;4.33;3.40;;;19.30;99.90;;;;;;5026676;28;20493;-66
2022/09/07 01:52:38;;;;;;;4.60;3.10;;;19.30;99.90;;;;;;5026804;28;20498;-66
2022/09/07 01:55:23;;;;;;;3.60;3.27;;;19.30;99.90;;;;;;5024810;28;20938;-66
2022/09/07 01:57:56;;;;;;;3.93;2.77;;;19.30;99.90;;;;;;5021406;28;20440;-66
2022/09/07 02:00:22;;;;;;;3.43;3.00;;;19.30;99.90;;;;;;5015000;28;20536;-66
2022/09/07 02:02:57;;;;;;;3.00;2.80;;;19.30;99.90;;;;;;5028803;28;20548;-66
2022/09/07 02:05:34;;;;;;;5.67;3.17;;;19.40;99.90;;;;;;5017522;28;20260;-67
2022/09/07 02:08:09;;;;;;;3.07;2.87;;;19.40;99.90;;;;;;5028513;28;20972;-66
2022/09/07 02:10:46;;;;;;;6.03;3.80;;;19.50;99.90;;;;;;5020913;28;20439;-66
2022/09/07 02:13:17;;;;;;;6.60;3.47;;;19.50;99.90;;;;;;5028224;28;20570;-66
2022/09/07 02:16:05;;;;;;;6.13;3.50;;;19.50;99.90;;;;;;5029939;28;20437;-66
2022/09/07 02:18:37;;;;;;;4.03;3.47;;;19.50;99.90;;;;;;5025423;28;20433;-66
2022/09/07 02:21:05;;;;;;;2.80;2.60;;;19.40;99.90;;;;;;5026332;28;20433;-66
2022/09/07 02:23:45;;;;;;;3.70;3.40;;;19.40;99.90;;;;;;5025476;28;20468;-66
2022/09/07 02:26:20;;;;;;;6.20;3.90;;;19.40;99.90;;;;;;5018221;28;20441;-66
2022/09/07 02:28:46;;;;;;;4.13;3.80;;;19.40;99.90;;;;;;5029852;28;20961;-66
2022/09/07 02:31:12;;;;;;;6.47;4.20;;;19.40;99.90;;;;;;5021666;28;20456;-66
2022/09/07 02:33:38;;;;;;;4.70;3.40;;;19.40;99.90;;;;;;5028875;28;20204;-66
2022/09/07 02:36:04;;;;;;;3.83;3.40;;;19.40;99.90;;;;;;5021487;28;20524;-66
2022/09/07 02:38:31;;;;;;;7.07;3.90;;;19.40;99.90;;;;;;5025665;28;20194;-66
2022/09/07 02:40:59;;;;;;;5.20;4.70;;;19.40;99.90;;;;;;5029591;28;20463;-66
2022/09/07 02:43:26;;;;;;;6.30;4.10;;;19.40;99.90;;;;;;5026972;28;21143;-66
2022/09/07 02:46:18;;;;;;;4.47;3.87;;;19.50;99.90;;;;;;5028035;28;20969;-66
2022/09/07 02:49:09;;;;;;;5.03;4.30;;;19.50;99.90;;;;;;5026736;28;20436;-66
2022/09/07 02:51:43;;;;;;;4.50;3.87;;;19.40;99.90;;;;;;5014582;28;20444;-66
2022/09/07 02:54:12;;;;;;;3.63;3.23;;;19.40;99.90;;;;;;5029627;28;21050;-66
2022/09/07 02:56:40;;;;;;;5.70;4.20;;;19.60;99.90;;;;;;5028946;28;20530;-66
2022/09/07 02:59:30;;;;;;;4.17;3.57;;;19.60;99.90;;;;;;5020352;28;20432;-66
2022/09/07 03:02:12;;;;;;;3.97;3.57;;;19.60;99.90;;;;;;5025614;28;20800;-66
2022/09/07 03:05:01;;;;;;;8.00;4.20;;;19.60;99.90;;;;;;5015081;28;20826;-66
2022/09/07 03:07:36;;;;;;;5.57;4.17;;;19.60;99.90;;;;;;5019445;28;20433;-66
2022/09/07 03:10:04;;;;;;;6.17;4.87;;;19.60;99.90;;;;;;5025720;28;20486;-66
2022/09/07 03:12:40;;;;;;;4.37;3.60;;;19.60;99.90;;;;;;5020654;28;20433;-70
2022/09/07 03:15:06;;;;;;;4.00;3.70;;;19.60;99.90;;;;;;5028673;28;20502;-66
2022/09/07 03:17:32;;;;;;;4.33;3.93;;;19.70;99.90;;;;;;5027423;28;20441;-66
2022/09/07 03:19:57;;;;;;;6.20;4.30;;;19.70;99.90;;;;;;5028836;28;20436;-66
2022/09/07 03:22:23;;;;;;;4.87;4.20;;;19.70;99.90;;;;;;5027210;28;20208;-66
2022/09/07 03:24:48;;;;;;;4.20;3.80;;;19.70;99.90;;;;;;5023482;28;20220;-67
2022/09/07 03:27:14;;;;;;;4.13;3.83;;;19.70;99.90;;;;;;5028853;28;20182;-67
2022/09/07 03:29:39;;;;;;;4.93;4.53;;;19.70;99.90;;;;;;5023327;28;20175;-66
2022/09/07 03:32:05;;;;;;;4.33;4.03;;;19.70;99.90;;;;;;5027572;28;20660;-66
2022/09/07 03:34:31;;;;;;;4.83;3.87;;;19.60;99.90;;;;;;5016504;28;20696;-66
2022/09/07 03:36:56;;;;;;;5.67;4.30;;;19.50;99.90;;;;;;5024382;28;20178;-66
2022/09/07 03:39:22;;;;;;;3.63;3.33;;;19.30;99.90;;;;;;5015477;28;20190;-66
2022/09/07 03:41:48;;;;;;;5.03;4.50;;;19.20;99.90;;;;;;5024729;28;20522;-65
2022/09/07 03:44:14;;;;;;;4.80;3.83;;;19.10;99.90;;;;;;5026325;28;20457;-66
2022/09/07 03:46:40;;;;;;;7.17;4.43;;;19.00;99.90;;;;;;5020731;28;20421;-66
2022/09/07 03:49:05;;;;;;;6.10;4.20;;;19.00;99.90;;;;;;5026802;28;20182;-66
2022/09/07 03:51:31;;;;;;;5.73;4.50;;;18.90;99.90;;;;;;5024969;28;20182;-66
2022/09/07 03:53:56;;;;;;;8.13;4.57;;;18.90;99.90;;;;;;5026962;28;20210;-66
2022/09/07 03:56:24;;;;;;;4.50;4.10;;;18.90;99.90;;;;;;5028737;28;20252;-66
2022/09/07 03:58:51;;;;;;;4.60;4.23;;;18.90;99.90;;;;;;5025480;28;20194;-66
2022/09/07 04:01:20;;;;;;;5.13;4.63;;;19.00;99.90;;;;;;5026440;28;20476;-66
2022/09/07 04:03:47;;;;;;;10.43;5.37;;;19.00;99.90;;;;;;5032915;28;20476;-66
2022/09/07 04:06:13;;;;;;;5.97;4.20;;;19.00;99.90;;;;;;5024030;28;20452;-66
2022/09/07 04:08:39;;;;;;;6.80;4.53;;;19.00;99.90;;;;;;5032148;28;21012;-66
2022/09/07 04:11:06;;;;;;;4.00;3.70;;;19.10;99.90;;;;;;5032451;28;20437;-66
2022/09/07 04:13:34;;;;;;;5.60;4.90;;;19.00;99.90;;;;;;5040055;22;20547;-66
2022/09/07 04:16:11;;;;;;;4.83;4.33;;;19.00;99.90;;;;;;5018520;28;20465;-65
2022/09/07 04:18:37;;;;;;;4.93;4.40;;;19.00;99.90;;;;;;5006443;28;20860;-65
2022/09/07 04:21:02;;;;;;;6.70;4.43;;;19.00;99.90;;;;;;5015218;28;20469;-66
2022/09/07 04:23:28;;;;;;;5.10;4.70;;;19.00;99.90;;;;;;5005609;28;21774;-66
2022/09/07 04:25:53;;;;;;;5.00;4.60;;;19.00;99.90;;;;;;4995466;28;20274;-67
2022/09/07 04:28:19;;;;;;;7.00;5.40;;;19.00;99.90;;;;;;4999621;28;20199;-66
2022/09/07 04:30:46;;;;;;;5.10;4.20;;;19.00;99.90;;;;;;4993873;28;20614;-66
2022/09/07 04:33:13;;;;;;;5.30;4.30;;;19.00;99.90;;;;;;4996981;28;20462;-66
2022/09/07 04:35:39;;;;;;;7.73;4.97;;;19.00;99.90;;;;;;4994515;28;20438;-66
2022/09/07 04:38:06;;;;;;;4.87;4.43;;;18.90;99.90;;;;;;4996599;28;20445;-67
2022/09/07 04:40:32;;;;;;;5.90;4.50;;;18.90;99.90;;;;;;5000095;28;20439;-66
2022/09/07 04:42:58;;;;;;;8.30;4.87;;;18.90;99.90;;;;;;4993941;28;20794;-66
2022/09/07 04:45:23;;;;;;;5.00;4.50;;;18.80;99.90;;;;;;4993224;28;20442;-65
2022/09/07 04:47:49;;;;;;;6.87;4.80;;;18.70;99.90;;;;;;4996431;28;20203;-66
2022/09/07 04:50:16;;;;;;;9.63;5.53;;;18.60;99.90;;;;;;4994039;28;20194;-66
2022/09/07 04:52:44;;;;;;;6.60;5.53;;;18.70;99.90;;;;;;4990567;28;20651;-65
2022/09/07 04:55:11;;;;;;;7.50;6.00;;;18.70;99.90;;;;;;4998009;28;21178;-66
2022/09/07 04:57:37;;;;;;;7.80;5.30;;;18.70;99.90;;;;;;4987446;28;20948;-65
2022/09/07 05:00:06;;;;;;;5.50;5.00;;;18.70;99.90;;;;;;4999334;28;20438;-66
2022/09/07 05:02:32;;;;;;;11.70;5.67;;;18.60;99.90;;;;;;4993378;28;20447;-65
2022/09/07 05:04:57;;;;;;;7.30;5.73;;;18.60;99.90;;;;;;4997312;28;20831;-65
2022/09/07 05:07:23;;;;;;;6.50;5.60;;;18.60;99.90;;;;;;4994359;28;20261;-65
2022/09/07 05:09:48;;;;;;;6.63;5.77;;;18.60;99.90;;;;;;4994224;28;20185;-65
2022/09/07 05:12:14;;;;;;;9.13;5.20;;;18.60;99.90;;;;;;4993748;28;20270;-66
2022/09/07 05:14:39;;;;;;;5.47;4.60;;;18.60;99.90;;;;;;4991307;28;20330;-65
2022/09/07 05:17:06;;;;;;;7.60;5.67;;;18.60;99.90;;;;;;4992016;28;20218;-66
2022/09/07 05:19:32;;;;;;;6.80;4.53;;;18.70;99.90;;;;;;4994366;28;20184;-66
2022/09/07 05:21:57;;;;;;;6.00;5.40;;;18.70;99.90;;;;;;4998650;28;20448;-66
2022/09/07 05:24:25;;;;;;;9.40;6.00;;;18.80;99.90;;;;;;4998279;28;20245;-67
2022/09/07 05:26:52;;;;;;;7.60;4.97;;;18.80;99.90;;;;;;4991806;28;20596;-66
2022/09/07 05:29:18;;;;;;;6.30;5.70;;;18.80;99.90;;;;;;4992760;28;20431;-66
2022/09/07 05:31:44;;;;;;;7.50;4.60;;;18.90;99.90;;;;;;4992076;28;20442;-66
2022/09/07 05:34:10;;;;;;;4.97;4.30;;;19.00;99.90;;;;;;4993434;28;20512;-66
2022/09/07 05:36:36;;;;;;;8.27;5.60;;;19.00;99.90;;;;;;4991376;28;20263;-65
2022/09/07 05:39:03;;;;;;;8.23;5.10;;;19.10;99.90;;;;;;4991116;28;20446;-65
2022/09/07 05:41:28;;;;;;;6.07;4.40;;;19.20;99.90;;;;;;4991654;28;20446;-66
2022/09/07 05:43:54;;;;;;;5.87;4.43;;;19.40;99.90;;;;;;4991979;28;20505;-65
2022/09/07 05:46:20;;;;;;;6.43;4.30;;;19.50;99.90;;;;;;4990643;28;20751;-65
2022/09/07 05:48:46;;;;;;;5.63;4.60;;;19.60;99.90;;;;;;4990910;28;20186;-66
2022/09/07 05:51:12;;;;;;;4.90;4.50;;;19.70;99.90;;;;;;4993751;28;20438;-67
2022/09/07 05:53:40;;;;;;;5.00;4.50;;;19.80;99.90;;;;;;4995102;28;20206;-65
2022/09/07 05:56:06;;;;;;;7.10;4.70;;;19.90;99.90;;;;;;4992667;28;20802;-66
2022/09/07 05:58:33;;;;;;;6.20;4.47;;;19.90;99.90;;;;;;4989968;28;20562;-66
2022/09/07 06:01:10;;;;;;;6.97;4.60;;;20.00;99.90;;;;;;4992826;28;20447;-67
2022/09/07 06:03:37;;;;;;;6.73;6.10;;;20.00;99.90;;;;;;4990399;28;20454;-65
2022/09/07 06:06:08;;;;;;;5.77;4.60;;;20.00;99.90;;;;;;4991989;28;20442;-66
2022/09/07 06:08:36;;;;;;;5.50;5.00;;;20.00;99.90;;;;;;4991124;28;20434;-66
2022/09/07 06:11:10;;;;;;;5.23;3.40;;;20.20;99.90;;;;;;4991349;28;20446;-66
2022/09/07 06:13:36;;;;;;;5.10;4.60;;;20.50;99.90;;;;;;4993193;28;20474;-65
2022/09/07 06:16:03;;;;;;;5.73;4.27;;;20.70;99.90;;;;;;4995442;28;20448;-66
2022/09/07 06:18:33;;;;;;;8.10;4.57;;;21.00;99.90;;;;;;4997428;28;20533;-65
2022/09/07 06:21:07;;;;;;;5.00;4.60;;;21.30;99.90;;;;;;4995111;28;20477;-65
2022/09/07 06:23:34;;;;;;;5.33;3.70;;;21.60;99.90;;;;;;4996276;28;20842;-65
2022/09/07 06:26:00;;;;;;;6.07;4.17;;;21.80;99.90;;;;;;4991079;28;20426;-66
2022/09/07 06:28:30;;;;;;;7.10;4.10;;;22.00;99.90;;;;;;5000109;28;20848;-65
2022/09/07 06:31:08;;;;;;;3.90;3.03;;;22.40;99.90;;;;;;4996104;28;20434;-65
2022/09/07 06:33:34;;;;;;;6.80;3.20;;;22.70;99.90;;;;;;4994537;28;20992;-66
2022/09/07 06:36:05;;;;;;;5.23;3.77;;;23.00;99.90;;;;;;5004961;28;20429;-66
2022/09/07 06:38:32;;;;;;;9.57;4.00;;;23.20;99.90;;;;;;4989708;28;20443;-66
2022/09/07 06:41:07;;;;;;;10.60;4.80;;;23.20;99.90;;;;;;4997558;28;20438;-66
2022/09/07 06:43:33;;;;;;;4.37;3.80;;;23.30;99.90;;;;;;4997019;28;21038;-65
2022/09/07 06:45:59;;;;;;;7.30;3.80;;;23.30;99.90;;;;;;4990485;28;20521;-66
2022/09/07 06:48:25;;;;;;;4.30;3.70;;;23.40;99.90;;;;;;4989055;28;20596;-68
2022/09/07 06:51:02;;;;;;;5.60;4.43;;;23.30;99.90;;;;;;4985484;28;20520;-66
2022/09/07 06:53:33;;;;;;;4.97;4.03;;;23.10;99.90;;;;;;4994623;28;20498;-65
2022/09/07 06:56:00;;;;;;;6.90;4.10;;;23.10;99.90;;;;;;4990580;28;20514;-67
2022/09/07 06:58:26;;;;;;;7.73;3.67;;;22.80;99.90;;;;;;4992111;28;20450;-65
2022/09/07 07:00:53;;;;;;;5.40;4.60;;;22.80;99.90;;;;;;4996246;28;20455;-66
2022/09/07 07:03:19;;;;;;;8.27;5.47;;;22.80;99.90;;;;;;4990021;28;20494;-66
2022/09/07 07:05:55;;;;;;;7.63;3.80;;;22.60;99.90;;;;;;4985960;28;20563;-65
2022/09/07 07:08:23;;;;;;;9.20;4.80;;;22.60;99.90;;;;;;4988809;28;20927;-65
2022/09/07 07:10:49;;;;;;;7.00;4.10;;;22.80;99.90;;;;;;4997255;28;20430;-66
2022/09/07 07:13:16;;;;;;;4.87;3.40;;;22.90;99.90;;;;;;4996263;28;20552;-66
2022/09/07 07:15:42;;;;;;;5.70;3.50;;;23.30;99.90;;;;;;4991041;28;20578;-65
2022/09/07 07:18:07;;;;;;;4.03;3.60;;;23.60;99.90;;;;;;4992363;28;20991;-66
2022/09/07 07:20:37;;;;;;;3.83;3.43;;;23.60;99.90;;;;;;4994141;28;20426;-66
2022/09/07 07:23:03;;;;;;;3.77;3.47;;;23.80;99.90;;;;;;4992105;28;20287;-70
2022/09/07 07:25:29;;;;;;;8.30;4.60;;;23.70;99.90;;;;;;4992917;28;20438;-71
2022/09/07 07:27:55;;;;;;;6.17;3.87;;;23.70;99.90;;;;;;4993836;28;21063;-71
2022/09/07 07:30:21;;;;;;;7.80;4.27;;;23.80;99.90;;;;;;4993641;28;20512;-71
2022/09/07 07:32:47;;;;;;;7.20;3.80;;;23.90;99.90;;;;;;4991283;28;20967;-71
2022/09/07 07:35:13;;;;;;;4.33;3.30;;;24.00;99.90;;;;;;4997005;28;20290;-71
2022/09/07 07:37:39;;;;;;;5.53;3.80;;;24.00;99.90;;;;;;4998379;28;20254;-71
2022/09/07 07:40:07;;;;;;;4.03;3.63;;;24.00;99.90;;;;;;4995910;28;20585;-71
2022/09/07 07:42:34;;;;;;;6.43;3.70;;;24.00;99.90;;;;;;5001477;28;20438;-72
2022/09/07 07:45:00;;;;;;;5.40;3.50;;;24.00;99.90;;;;;;4987771;28;20573;-71
2022/09/07 07:47:26;;;;;;;7.33;3.50;;;24.00;99.90;;;;;;4993281;28;20438;-70
2022/09/07 07:49:52;;;;;;;7.50;3.50;;;24.20;99.90;;;;;;4990074;28;20443;-72
2022/09/07 07:52:17;;;;;;;4.67;4.07;;;24.20;99.90;;;;;;5000301;28;20260;-72
2022/09/07 07:54:44;;;;;;;6.07;3.17;;;24.20;99.90;;;;;;4997084;28;20203;-70
2022/09/07 07:57:10;;;;;;;11.43;3.73;;;24.40;99.90;;;;;;4993528;28;20190;-72
2022/09/07 07:59:36;;;;;;;6.20;3.40;;;24.70;99.90;;;;;;4999870;28;20434;-72
2022/09/07 08:02:03;;;;;;;7.70;3.20;;;24.70;99.90;;;;;;4993882;28;20990;-72
2022/09/07 08:04:32;;;;;;;7.50;4.60;;;24.70;99.90;;;;;;4995681;28;20462;-73
2022/09/07 08:06:58;;;;;;;3.67;3.17;;;24.80;99.90;;;;;;4993988;28;20477;-72
2022/09/07 08:09:24;;;;;;;8.83;3.27;;;24.80;99.90;;;;;;4996628;28;20474;-72
2022/09/07 08:11:50;;;;;;;7.93;4.00;;;24.90;99.90;;;;;;4993714;28;20176;-73
2022/09/07 08:14:15;;;;;;;6.23;3.80;;;25.00;99.90;;;;;;4994578;28;20632;-72
2022/09/07 08:16:44;;;;;;;5.80;3.87;;;24.90;99.90;;;;;;4994316;28;20267;-72
2022/09/07 08:19:10;;;;;;;7.47;3.47;;;25.00;99.90;;;;;;4992211;28;20187;-74
2022/09/07 08:21:36;;;;;;;5.97;3.40;;;25.10;99.90;;;;;;4992886;28;20442;-74
2022/09/07 08:24:02;;;;;;;8.90;3.47;;;25.30;99.90;;;;;;4990897;28;21175;-72
2022/09/07 08:26:28;;;;;;;12.13;3.97;;;25.60;99.90;;;;;;4994197;28;20190;-65
2022/09/07 08:28:54;;;;;;;10.33;4.20;;;25.80;99.90;;;;;;4993587;28;20923;-66
2022/09/07 08:31:19;;;;;;;5.57;3.03;;;26.00;99.90;;;;;;5000533;28;21090;-68
2022/09/07 08:33:45;;;;;;;6.70;3.67;;;26.20;99.90;;;;;;4994329;28;20211;-73
2022/09/07 08:36:13;;;;;;;4.37;3.97;;;26.20;99.90;;;;;;4999940;28;20569;-70
2022/09/07 08:38:39;;;;;;;8.13;4.07;;;26.40;99.90;;;;;;4986418;28;20210;-70
2022/09/07 08:41:42;;;;;;;6.13;3.90;;;26.70;99.90;;;;;;4992189;28;20964;-70
2022/09/07 08:44:45;;;;;;;5.13;3.30;;;27.10;99.90;;;;;;4993609;28;20242;-69
2022/09/07 08:47:29;;;;;;;4.93;3.17;;;27.80;99.90;;;;;;4914219;29;20452;-76
2022/09/07 08:50:08;;;;;;;6.50;3.20;;;28.10;99.90;;;;;;4987256;28;20443;-71
2022/09/07 08:52:56;;;;;;;7.03;3.73;;;28.30;99.90;;;;;;4993131;28;20517;-70
2022/09/07 08:55:30;;;;;;;6.07;3.60;;;28.10;99.90;;;;;;4990427;28;20443;-70
2022/09/07 08:58:29;;;;;;;5.40;3.00;;;28.30;99.90;;;;;;4994965;28;20517;-72
2022/09/07 09:00:55;;;;;;;12.73;3.90;;;28.80;99.90;;;;;;4993975;28;20438;-71
2022/09/07 09:03:26;;;;;;;7.47;3.53;;;29.20;99.90;;;;;;4993999;28;20884;-71
2022/09/07 09:06:12;;;;;;;5.07;3.53;;;29.50;99.90;;;;;;4993185;28;20412;-71
2022/09/07 09:09:05;;;;;;;10.93;3.63;;;30.50;99.90;;;;;;4992432;28;20882;-70
2022/09/07 09:11:50;;;;;;;8.07;3.53;;;30.80;99.90;;;;;;4993339;28;20592;-70
2022/09/07 09:14:28;;;;;;;5.03;3.00;;;30.90;99.90;;;;;;4994289;28;21056;-70
2022/09/07 09:17:17;;;;;;;4.83;3.50;;;31.10;99.90;;;;;;4991999;28;20893;-71
2022/09/07 09:20:11;;;;;;;6.27;4.20;;;30.80;99.00;;;;;;4989806;28;20940;-71
2022/09/07 09:22:37;;;;;;;5.20;3.87;;;31.80;97.80;;;;;;4986807;28;20446;-75
2022/09/07 09:25:19;;;;;;;7.57;3.67;;;32.10;96.60;;;;;;4992496;28;20470;-70
2022/09/07 09:27:46;;;;;;;4.50;3.43;;;32.50;95.80;;;;;;4995000;28;20439;-72
2022/09/07 09:30:14;;;;;;;5.77;3.33;;;32.70;94.90;;;;;;4992222;28;20642;-70
2022/09/07 09:32:43;;;;;;;4.17;3.87;;;33.20;93.20;;;;;;4992501;28;20442;-69
2022/09/07 09:35:33;;;;;;;5.07;3.83;;;32.70;92.60;;;;;;4990860;28;20467;-70
2022/09/07 09:38:02;;;;;;;4.80;3.40;;;32.50;92.70;;;;;;4990047;28;20948;-70
2022/09/07 09:40:34;;;;;;;8.10;3.80;;;32.50;92.50;;;;;;4992277;28;20805;-70
2022/09/07 09:43:05;;;;;;;5.57;4.10;;;33.50;92.10;;;;;;4992226;28;20469;-70
2022/09/07 09:45:41;;;;;;;4.40;3.27;;;34.00;89.60;;;;;;4989483;28;20445;-70
2022/09/07 09:48:09;;;;;;;8.13;3.90;;;33.10;90.20;;;;;;4993075;28;21001;-70
2022/09/07 09:50:39;;;;;;;7.97;3.67;;;33.10;90.60;;;;;;4999303;28;20454;-72
2022/09/07 09:53:05;;;;;;;4.47;2.80;;;32.80;90.10;;;;;;4998582;28;20533;-65
2022/09/07 09:55:36;;;;;;;5.97;3.73;;;34.60;87.90;;;;;;5001739;28;20447;-65
2022/09/07 09:58:25;;;;;;;4.27;3.23;;;35.70;83.70;;;;;;4991160;28;20434;-65
2022/09/07 10:01:05;;;;;;;9.57;3.43;;;37.10;77.70;;;;;;4992565;28;20861;-65
2022/09/07 10:03:33;;;;;;;3.93;3.40;;;36.50;76.10;;;;;;4991302;28;21238;-66
2022/09/07 10:06:13;;;;;;;5.80;3.40;;;36.40;73.40;;;;;;4998177;28;20418;-65
2022/09/07 10:08:47;;;;;;;3.43;2.83;;;36.00;73.20;;;;;;4992012;28;20441;-68
2022/09/07 10:11:14;;;;;;;4.30;3.53;;;35.70;74.00;;;;;;4999959;28;20434;-67
2022/09/07 10:13:54;;;;;;;3.70;3.13;;;37.50;71.50;;;;;;5016762;23;20464;-65
2022/09/07 10:16:41;;;;;;;6.27;3.13;;;35.60;71.10;;;;;;5028182;28;20824;-65
2022/09/07 10:19:32;;;;;;;5.20;3.27;;;35.50;72.50;;;;;;5029972;28;20436;-64
2022/09/07 10:22:03;;;;;;;3.47;3.03;;;35.30;71.90;;;;;;5028234;28;20437;-65
2022/09/07 10:24:38;;;;;;;3.90;2.80;;;34.60;71.90;;;;;;5020664;28;21016;-65
2022/09/07 10:27:31;;;;;;;5.10;4.30;;;34.90;71.80;;;;;;5012005;28;20443;-65
2022/09/07 10:29:58;;;;;;;3.87;3.43;;;34.90;71.10;;;;;;5021907;28;20949;-65
2022/09/07 10:32:32;;;;;;;5.30;4.20;;;34.70;70.80;;;;;;5013858;28;20431;-65
2022/09/07 10:35:19;;;;;;;4.30;3.60;;;35.30;70.80;;;;;;5021335;28;20506;-65
2022/09/07 10:38:06;;;;;;;8.87;6.53;;;34.90;69.50;;;;;;5016884;28;20537;-65
2022/09/07 10:40:39;;;;;;;6.30;3.30;;;33.40;72.00;;;;;;5014229;28;20506;-65
2022/09/07 10:43:36;;;;;;;5.20;3.37;;;32.60;73.40;;;;;;5006578;28;20442;-64
2022/09/07 10:46:11;;;;;;;5.63;3.53;;;32.40;74.70;;;;;;5000370;28;20443;-65
2022/09/07 10:48:48;;;;;;;8.47;6.10;;;32.00;75.90;;;;;;4995587;28;20437;-65
2022/09/07 10:51:28;;;;;;;3.97;3.57;;;31.40;77.70;;;;;;5002869;28;20441;-65
2022/09/07 10:54:20;;;;;;;5.20;4.30;;;31.90;76.10;;;;;;5001739;28;20492;-66
2022/09/07 10:57:06;;;;;;;4.50;3.50;;;32.20;77.60;;;;;;4996484;28;20431;-65
2022/09/07 10:59:50;;;;;;;6.00;5.50;;;32.60;76.40;;;;;;5001185;28;20450;-65
2022/09/07 11:02:41;;;;;;;12.83;4.40;;;32.30;78.80;;;;;;5001447;28;20440;-64
2022/09/07 11:05:22;;;;;;;7.97;5.73;;;31.20;81.20;;;;;;4982571;28;20535;-65
2022/09/07 11:07:53;;;;;;;5.70;4.47;;;30.90;83.90;;;;;;5002921;28;20529;-65
2022/09/07 11:10:22;;;;;;;5.03;4.53;;;30.70;85.40;;;;;;5005174;28;20961;-65
2022/09/07 11:12:51;;;;;;;4.37;3.50;;;31.00;85.40;;;;;;5005092;28;20442;-65
2022/09/07 11:15:30;;;;;;;9.47;4.30;;;30.60;86.00;;;;;;5005588;28;20509;-65
2022/09/07 11:18:05;;;;;;;4.40;4.00;;;30.40;88.50;;;;;;5002300;28;20477;-65
2022/09/07 11:20:40;;;;;;;5.00;4.47;;;30.70;89.10;;;;;;5003543;28;20464;-65
2022/09/07 11:23:37;;;;;;;6.63;4.83;;;32.60;86.00;;;;;;5004463;28;20473;-65
2022/09/07 11:26:06;;;;;;;5.73;4.50;;;33.60;82.80;;;;;;5000894;28;21009;-64
2022/09/07 11:28:55;;;;;;;6.37;3.37;;;33.90;78.60;;;;;;5002142;28;20442;-65
2022/09/07 11:31:29;;;;;;;4.03;3.63;;;34.40;77.70;;;;;;5005244;28;20447;-65
2022/09/07 11:34:00;;;;;;;4.40;4.00;;;35.90;75.50;;;;;;5004993;28;20488;-65
2022/09/07 11:36:31;;;;;;;5.60;3.80;;;38.10;69.50;;;;;;5003848;28;20438;-65
2022/09/07 11:39:18;;;;;;;4.47;4.07;;;39.80;65.80;;;;;;5014508;28;20461;-65
2022/09/07 11:42:10;;;;;;;5.10;2.70;;;41.40;59.50;;;;;;5012345;28;20468;-65
2022/09/07 11:44:55;;;;;;;3.17;2.97;;;41.70;57.40;;;;;;4998402;28;20486;-65
2022/09/07 11:47:43;;;;;;;4.63;2.83;;;40.50;54.50;;;;;;5012985;28;20579;-65
2022/09/07 11:50:16;;;;;;;4.43;2.90;;;39.70;55.70;;;;;;5003042;28;20450;-65
2022/09/07 11:52:47;;;;;;;6.10;3.30;;;41.10;53.60;;;;;;5015714;28;20525;-65
2022/09/07 11:55:24;;;;;;;4.43;2.60;;;41.50;53.40;;;;;;5014979;28;20457;-65
2022/09/07 11:58:23;;;;;;;3.23;2.80;;;40.10;52.80;;;;;;5026613;28;20436;-65
2022/09/07 12:01:13;;;;;;;3.73;2.97;;;40.70;52.30;;;;;;5001525;28;20441;-65
2022/09/07 12:04:05;;;;;;;5.50;3.80;;;39.60;52.90;;;;;;5022222;28;20838;-65
2022/09/07 12:07:18;;;;;;;4.00;2.97;;;36.70;55.50;;;;;;5010300;28;20472;-65
2022/09/07 12:10:11;;;;;;;3.93;3.07;;;34.30;59.00;;;;;;5015193;28;20436;-64
2022/09/07 12:13:01;;;;;;;3.00;2.80;;;32.60;61.70;;;;;;5004437;28;20819;-65
2022/09/07 12:16:02;;;;;;;5.63;2.70;;;33.80;60.70;;;;;;5002038;28;20465;-65
2022/09/07 12:18:43;;;;;;;5.37;2.87;;;37.20;56.30;;;;;;5012175;28;20530;-65
2022/09/07 12:21:33;;;;;;;6.43;2.87;;;39.50;53.00;;;;;;4999591;28;20437;-65
2022/09/07 12:23:59;;;;;;;3.30;2.80;;;40.10;51.30;;;;;;4998870;28;20528;-65
2022/09/07 12:26:34;;;;;;;3.10;2.80;;;40.30;50.30;;;;;;5020692;28;20954;-65
2022/09/07 12:28:59;;;;;;;4.13;3.17;;;41.50;49.90;;;;;;5020458;28;20178;-65
2022/09/07 12:31:46;;;;;;;5.10;3.70;;;40.10;50.90;;;;;;5018430;28;20807;-65
2022/09/07 12:34:30;;;;;;;6.33;2.47;;;39.10;52.10;;;;;;5012670;28;20222;-65
2022/09/07 12:37:00;;;;;;;3.43;3.00;;;38.40;52.80;;;;;;5002981;28;20474;-65
2022/09/07 12:39:28;;;;;;;4.43;3.27;;;39.00;52.60;;;;;;5017395;28;20535;-65
2022/09/07 12:42:06;;;;;;;4.17;2.70;;;40.80;51.60;;;;;;5004313;28;20863;-65
2022/09/07 12:44:33;;;;;;;5.07;2.47;;;40.00;51.20;;;;;;5008547;28;20476;-65
2022/09/07 12:47:01;;;;;;;2.53;2.33;;;38.50;51.80;;;;;;5022923;28;20487;-65
2022/09/07 12:49:48;;;;;;;5.07;2.80;;;40.50;49.90;;;;;;5020750;28;20441;-65
2022/09/07 12:52:41;;;;;;;4.90;3.20;;;41.70;49.60;;;;;;5014458;28;20423;-65
2022/09/07 12:55:45;;;;;;;4.30;3.23;;;43.30;47.50;;;;;;5004881;28;20832;-65
2022/09/07 12:58:35;;;;;;;3.03;2.70;;;43.00;46.60;;;;;;5001556;28;20445;-65
2022/09/07 13:01:10;;;;;;;3.77;2.70;;;41.80;47.40;;;;;;5004469;28;20552;-65
2022/09/07 13:03:58;;;;;;;5.50;3.17;;;40.00;48.50;;;;;;5000416;28;20881;-64
2022/09/07 13:07:02;;;;;;;6.13;2.53;;;38.40;49.70;;;;;;5000251;28;21979;-68
2022/09/07 13:09:38;;;;;;;4.20;2.67;;;36.70;51.50;;;;;;4985158;28;20449;-67
2022/09/07 13:12:37;;;;;;;4.03;2.87;;;34.70;52.90;;;;;;4995640;28;20434;-65
2022/09/07 13:15:04;;;;;;;4.00;2.87;;;33.90;54.10;;;;;;5003034;28;20473;-65